createdAt,value
2023-04-27T05:03:11.156Z,25.00
2023-04-27T05:04:12.239Z,25.00
2023-04-27T05:05:12.093Z,25.00
2023-04-27T05:06:12.081Z,25.00
2023-04-27T05:07:14.063Z,25.00
2023-04-27T05:08:11.094Z,25.00
2023-04-27T05:09:12.188Z,0.00
2023-04-27T05:10:11.088Z,0.00
2023-04-27T05:11:12.084Z,0.00
2023-04-27T05:12:12.086Z,0.00
2023-04-27T05:13:12.107Z,0.00
2023-04-27T05:14:11.039Z,0.00
2023-04-27T05:15:12.125Z,0.00
2023-04-27T05:16:12.095Z,0.00
2023-04-27T05:17:11.029Z,0.00
2023-04-27T05:18:11.036Z,0.00
2023-04-27T05:19:12.433Z,0.00
2023-04-27T05:20:11.016Z,0.00
2023-04-27T05:21:10.996Z,0.00
2023-04-27T05:22:11.008Z,0.00
2023-04-27T05:23:11.995Z,0.00
2023-04-27T05:24:10.989Z,0.00
2023-04-27T05:25:10.986Z,0.00
2023-04-27T05:26:11.965Z,0.00
2023-04-27T05:27:11.972Z,0.00
2023-04-27T05:28:10.965Z,0.00
2023-04-27T05:29:12.199Z,18.42
2023-04-27T05:30:11.943Z,26.05
2023-04-27T05:31:11.007Z,27.40
2023-04-27T05:32:11.043Z,25.87
2023-04-27T05:33:11.992Z,27.53
2023-04-27T05:34:10.921Z,25.54
2023-04-27T05:35:11.940Z,28.35
2023-04-27T05:36:10.910Z,27.13
2023-04-27T05:37:11.898Z,25.94
2023-04-27T05:38:11.895Z,25.00
2023-04-27T05:39:12.079Z,27.18
2023-04-27T05:40:11.898Z,28.29
2023-04-27T05:41:11.870Z,29.11
2023-04-27T05:42:10.850Z,25.24
2023-04-27T05:43:10.877Z,26.34
2023-04-27T05:44:10.860Z,25.00
2023-04-27T05:45:11.862Z,26.81
2023-04-27T05:46:11.874Z,29.09
2023-04-27T05:47:11.838Z,28.25
2023-04-27T05:48:11.818Z,27.53
2023-04-27T05:49:10.830Z,25.16
2023-04-27T05:50:10.813Z,29.79
2023-04-27T05:51:10.831Z,29.98
2023-04-27T05:52:11.805Z,30.00
2023-04-27T05:53:10.794Z,26.17
2023-04-27T05:54:11.807Z,25.00
2023-04-27T05:55:11.790Z,26.30
2023-04-27T05:56:11.800Z,25.00
2023-04-27T05:57:10.772Z,28.47
2023-04-27T05:58:11.827Z,27.18
2023-04-27T05:59:12.116Z,27.26
2023-04-27T06:00:10.846Z,29.00
2023-04-27T06:01:11.874Z,28.59
2023-04-27T06:02:10.977Z,28.12
2023-04-27T06:03:12.149Z,30.42
2023-04-27T06:04:12.179Z,27.59
2023-04-27T06:05:12.077Z,27.64
2023-04-27T06:06:12.180Z,31.07
2023-04-27T06:07:11.175Z,28.54
2023-04-27T06:08:12.262Z,25.56
2023-04-27T06:09:12.472Z,27.72
2023-04-27T06:10:11.296Z,28.06
2023-04-27T06:11:12.327Z,26.78
2023-04-27T06:12:12.376Z,25.79
2023-04-27T06:13:12.438Z,26.59
2023-04-27T06:14:12.486Z,28.25
2023-04-27T06:15:11.518Z,27.40
2023-04-27T06:16:12.587Z,27.49
2023-04-27T06:17:11.610Z,27.57
2023-04-27T06:18:12.672Z,27.87
2023-04-27T06:19:12.975Z,29.25
2023-04-27T06:20:11.757Z,29.44
2023-04-27T06:21:12.777Z,30.50
2023-04-27T06:22:12.875Z,28.88
2023-04-27T06:23:12.935Z,28.24
2023-04-27T06:24:11.974Z,27.68
2023-04-27T06:25:13.002Z,26.34
2023-04-27T06:26:12.055Z,30.06
2023-04-27T06:27:13.102Z,28.70
2023-04-27T06:28:13.158Z,26.05
2023-04-27T06:29:13.468Z,27.14
2023-04-27T06:30:13.254Z,27.83
2023-04-27T06:31:13.347Z,28.61
2023-04-27T06:32:12.359Z,29.14
2023-04-27T06:33:13.415Z,29.07
2023-04-27T06:34:12.444Z,26.69
2023-04-27T06:35:13.462Z,26.06
2023-04-27T06:36:13.485Z,28.81
2023-04-27T06:37:12.515Z,29.04
2023-04-27T06:38:13.643Z,26.59
2023-04-27T06:39:14.119Z,30.92
2023-04-27T06:40:13.719Z,25.51
2023-04-27T06:41:13.736Z,28.20
2023-04-27T06:42:12.776Z,31.66
2023-04-27T06:43:13.844Z,30.29
2023-04-27T06:44:12.873Z,29.01
2023-04-27T06:45:13.898Z,30.41
2023-04-27T06:46:13.967Z,29.17
2023-04-27T06:47:12.986Z,31.81
2023-04-27T06:48:13.049Z,28.98
2023-04-27T06:49:14.399Z,28.83
2023-04-27T06:50:14.137Z,28.73
2023-04-27T06:51:14.187Z,30.28
2023-04-27T06:52:14.234Z,29.22
2023-04-27T06:53:13.294Z,29.25
2023-04-27T06:54:14.550Z,27.59
2023-04-27T06:55:14.380Z,28.89
2023-04-27T06:56:14.402Z,32.23
2023-04-27T06:57:14.453Z,29.38
2023-04-27T06:58:13.451Z,30.92
2023-04-27T06:59:14.719Z,32.82
2023-04-27T07:00:13.561Z,32.82
2023-04-27T07:01:14.628Z,32.46
2023-04-27T07:02:14.692Z,25.25
2023-04-27T07:03:14.817Z,29.65
2023-04-27T07:04:14.927Z,29.11
2023-04-27T07:05:14.770Z,29.32
2023-04-27T07:06:13.814Z,33.04
2023-04-27T07:07:14.856Z,28.44
2023-04-27T07:08:14.908Z,31.12
2023-04-27T07:09:26.433Z,29.25
2023-04-27T07:10:14.939Z,29.52
2023-04-27T07:11:14.893Z,30.10
2023-04-27T07:12:14.889Z,30.36
2023-04-27T07:13:14.884Z,29.01
2023-04-27T07:14:14.853Z,32.36
2023-04-27T07:15:13.866Z,32.39
2023-04-27T07:16:14.929Z,31.78
2023-04-27T07:17:13.844Z,31.78
2023-04-27T07:18:13.914Z,30.73
2023-04-27T07:19:15.096Z,31.10
2023-04-27T07:20:13.835Z,30.94
2023-04-27T07:21:13.865Z,28.43
2023-04-27T07:22:14.817Z,33.90
2023-04-27T07:23:13.808Z,34.03
2023-04-27T07:24:14.803Z,36.14
2023-04-27T07:25:13.792Z,28.74
2023-04-27T07:26:13.798Z,30.27
2023-04-27T07:27:13.774Z,31.71
2023-04-27T07:28:14.778Z,31.27
2023-04-27T07:29:26.556Z,33.53
2023-04-27T07:30:14.773Z,33.74
2023-04-27T07:31:14.776Z,34.41
2023-04-27T07:32:13.939Z,35.63
2023-04-27T07:33:14.754Z,32.47
2023-04-27T07:34:14.767Z,33.28
2023-04-27T07:35:14.771Z,35.27
2023-04-27T07:36:14.725Z,32.93
2023-04-27T07:37:13.730Z,31.70
2023-04-27T07:38:14.711Z,34.91
2023-04-27T07:39:13.922Z,35.70
2023-04-27T07:40:14.708Z,30.87
2023-04-27T07:41:14.714Z,33.09
2023-04-27T07:42:14.800Z,32.22
2023-04-27T07:43:14.666Z,34.16
2023-04-27T07:44:14.664Z,34.96
2023-04-27T07:45:14.675Z,32.83
2023-04-27T07:46:14.783Z,31.23
2023-04-27T07:47:13.657Z,31.22
2023-04-27T07:48:13.704Z,33.76
2023-04-27T07:49:15.489Z,36.25
2023-04-27T07:50:13.628Z,35.26
2023-04-27T07:51:14.622Z,37.31
2023-04-27T07:52:14.636Z,32.18
2023-04-27T07:53:13.600Z,32.24
2023-04-27T07:54:13.596Z,34.72
2023-04-27T07:55:13.667Z,34.13
2023-04-27T07:56:14.720Z,31.50
2023-04-27T07:57:14.792Z,36.80
2023-04-27T07:58:14.884Z,36.94
2023-04-27T07:59:15.296Z,33.97
2023-04-27T08:00:14.984Z,35.05
2023-04-27T08:01:15.032Z,37.09
2023-04-27T08:02:19.320Z,32.19
2023-04-27T08:03:15.322Z,32.57
2023-04-27T08:04:14.302Z,32.56
2023-04-27T08:05:14.520Z,33.04
2023-04-27T08:06:15.326Z,33.38
2023-04-27T08:07:14.250Z,36.40
2023-04-27T08:08:14.092Z,35.50
2023-04-27T08:09:14.321Z,34.22
2023-04-27T08:10:15.044Z,34.94
2023-04-27T08:11:15.031Z,35.56
2023-04-27T08:12:15.057Z,37.99
2023-04-27T08:13:14.035Z,35.94
2023-04-27T08:14:15.045Z,37.35
2023-04-27T08:15:15.019Z,36.70
2023-04-27T08:16:14.049Z,36.17
2023-04-27T08:17:13.992Z,37.38
2023-04-27T08:18:15.073Z,35.76
2023-04-27T08:19:15.460Z,40.99
2023-04-27T08:20:14.174Z,36.09
2023-04-27T08:21:14.220Z,33.76
2023-04-27T08:22:15.277Z,36.17
2023-04-27T08:23:15.327Z,34.54
2023-04-27T08:24:14.381Z,35.53
2023-04-27T08:25:15.403Z,36.10
2023-04-27T08:26:14.459Z,39.21
2023-04-27T08:27:15.532Z,35.41
2023-04-27T08:28:15.586Z,34.93
2023-04-27T08:29:26.274Z,39.69
2023-04-27T08:30:15.673Z,39.81
2023-04-27T08:31:15.652Z,39.71
2023-04-27T08:32:15.611Z,38.06
2023-04-27T08:33:15.767Z,38.15
2023-04-27T08:34:15.607Z,38.54
2023-04-27T08:35:14.607Z,38.68
2023-04-27T08:36:15.669Z,38.38
2023-04-27T08:37:15.583Z,37.60
2023-04-27T08:38:14.584Z,37.84
2023-04-27T08:39:15.820Z,36.50
2023-04-27T08:40:14.673Z,40.86
2023-04-27T08:41:21.350Z,37.56
2023-04-27T08:42:15.738Z,37.77
2023-04-27T08:43:14.727Z,37.83
2023-04-27T08:44:15.085Z,38.23
2023-04-27T08:45:14.707Z,37.84
2023-04-27T08:46:14.763Z,35.01
2023-04-27T08:47:15.693Z,39.58
2023-04-27T08:48:15.738Z,38.57
2023-04-27T08:49:17.061Z,40.78
2023-04-27T08:50:15.684Z,41.30
2023-04-27T08:51:14.692Z,45.54
2023-04-27T08:52:15.664Z,43.47
2023-04-27T08:53:14.658Z,40.08
2023-04-27T08:54:14.649Z,39.64
2023-04-27T08:55:16.627Z,35.95
2023-04-27T08:56:14.635Z,40.18
2023-04-27T08:57:15.646Z,39.53
2023-04-27T08:58:15.642Z,39.83
2023-04-27T08:59:16.489Z,36.14
2023-04-27T09:00:15.623Z,40.99
2023-04-27T09:01:15.698Z,38.39
2023-04-27T09:02:15.934Z,41.65
2023-04-27T09:03:15.942Z,39.29
2023-04-27T09:04:16.102Z,42.82
2023-04-27T09:05:16.108Z,42.00
2023-04-27T09:06:15.172Z,43.29
2023-04-27T09:07:15.072Z,44.54
2023-04-27T09:08:16.136Z,42.06
2023-04-27T09:09:15.494Z,36.31
2023-04-27T09:10:15.239Z,40.74
2023-04-27T09:11:16.305Z,41.45
2023-04-27T09:12:16.373Z,45.40
2023-04-27T09:13:16.427Z,41.34
2023-04-27T09:14:15.501Z,39.70
2023-04-27T09:15:15.559Z,39.60
2023-04-27T09:16:15.640Z,39.04
2023-04-27T09:17:16.670Z,41.81
2023-04-27T09:18:15.896Z,41.79
2023-04-27T09:19:15.897Z,41.41
2023-04-27T09:20:16.851Z,42.93
2023-04-27T09:21:15.919Z,41.53
2023-04-27T09:22:16.980Z,43.86
2023-04-27T09:23:16.030Z,42.01
2023-04-27T09:24:16.089Z,43.98
2023-04-27T09:25:17.157Z,42.84
2023-04-27T09:26:17.220Z,45.00
2023-04-27T09:27:16.283Z,39.05
2023-04-27T09:28:17.360Z,44.41
2023-04-27T09:29:17.443Z,41.42
2023-04-27T09:30:16.478Z,43.04
2023-04-27T09:31:17.552Z,42.31
2023-04-27T09:32:17.120Z,40.17
2023-04-27T09:33:16.649Z,43.39
2023-04-27T09:34:16.736Z,44.25
2023-04-27T09:35:17.787Z,45.09
2023-04-27T09:36:17.834Z,44.99
2023-04-27T09:37:17.891Z,44.60
2023-04-27T09:38:17.952Z,39.69
2023-04-27T09:39:17.985Z,43.50
2023-04-27T09:40:18.030Z,46.65
2023-04-27T09:41:18.096Z,43.60
2023-04-27T09:42:17.142Z,44.45
2023-04-27T09:43:18.209Z,44.21
2023-04-27T09:44:17.268Z,42.46
2023-04-27T09:45:17.331Z,41.41
2023-04-27T09:46:18.408Z,44.15
2023-04-27T09:47:17.451Z,44.37
2023-04-27T09:48:18.543Z,42.43
2023-04-27T09:49:19.092Z,42.13
2023-04-27T09:50:18.685Z,41.84
2023-04-27T09:51:18.712Z,43.13
2023-04-27T09:52:18.761Z,40.50
2023-04-27T09:53:18.829Z,43.44
2023-04-27T09:54:18.901Z,45.16
2023-04-27T09:55:17.958Z,42.17
2023-04-27T09:56:18.024Z,43.84
2023-04-27T09:57:18.078Z,40.79
2023-04-27T09:58:19.139Z,44.40
2023-04-27T09:59:19.203Z,43.24
2023-04-27T10:00:19.353Z,43.97
2023-04-27T10:01:19.328Z,48.38
2023-04-27T10:02:25.338Z,48.89
2023-04-27T10:03:19.488Z,49.23
2023-04-27T10:04:19.602Z,50.00
2023-04-27T10:05:19.406Z,49.96
2023-04-27T10:06:18.383Z,51.19
2023-04-27T10:07:19.347Z,51.85
2023-04-27T10:08:19.344Z,53.52
2023-04-27T10:09:18.361Z,52.86
2023-04-27T10:10:19.363Z,50.80
2023-04-27T10:11:20.363Z,52.05
2023-04-27T10:12:19.334Z,50.20
2023-04-27T10:13:19.317Z,49.95
2023-04-27T10:14:19.299Z,51.05
2023-04-27T10:15:19.299Z,52.36
2023-04-27T10:16:18.303Z,52.27
2023-04-27T10:17:19.281Z,53.78
2023-04-27T10:18:19.306Z,54.29
2023-04-27T10:19:18.352Z,53.20
2023-04-27T10:20:19.427Z,51.47
2023-04-27T10:21:18.474Z,54.87
2023-04-27T10:22:18.562Z,56.92
2023-04-27T10:23:19.593Z,56.32
2023-04-27T10:24:18.657Z,56.52
2023-04-27T10:25:18.733Z,57.96
2023-04-27T10:26:19.793Z,55.00
2023-04-27T10:27:18.848Z,59.62
2023-04-27T10:28:19.888Z,58.77
2023-04-27T10:29:18.963Z,58.45
2023-04-27T10:30:20.036Z,59.61
2023-04-27T10:31:20.134Z,58.75
2023-04-27T10:32:20.173Z,57.11
2023-04-27T10:33:20.217Z,58.94
2023-04-27T10:34:21.486Z,60.58
2023-04-27T10:35:19.350Z,59.47
2023-04-27T10:36:19.392Z,62.54
2023-04-27T10:37:20.472Z,60.47
2023-04-27T10:38:20.587Z,60.65
2023-04-27T10:39:20.573Z,61.41
2023-04-27T10:40:20.661Z,61.93
2023-04-27T10:41:19.698Z,62.01
2023-04-27T10:42:20.744Z,63.15
2023-04-27T10:43:20.814Z,63.22
2023-04-27T10:44:20.869Z,61.02
2023-04-27T10:45:20.927Z,64.92
2023-04-27T10:46:21.080Z,63.21
2023-04-27T10:47:21.057Z,65.59
2023-04-27T10:48:21.128Z,63.90
2023-04-27T10:49:21.184Z,65.68
2023-04-27T10:50:21.272Z,65.08
2023-04-27T10:51:20.309Z,66.89
2023-04-27T10:52:21.384Z,67.05
2023-04-27T10:53:21.426Z,64.00
2023-04-27T10:54:21.491Z,67.08
2023-04-27T10:55:20.541Z,67.42
2023-04-27T10:56:21.603Z,68.49
2023-04-27T10:57:21.639Z,70.36
2023-04-27T10:58:21.695Z,70.28
2023-04-27T10:59:20.744Z,71.73
2023-04-27T11:00:21.808Z,75.60
2023-04-27T11:01:21.965Z,74.84
2023-04-27T11:02:21.968Z,72.69
2023-04-27T11:03:21.131Z,72.37
2023-04-27T11:04:22.063Z,70.55
2023-04-27T11:05:21.058Z,75.14
2023-04-27T11:06:22.105Z,71.21
2023-04-27T11:07:22.154Z,72.90
2023-04-27T11:08:22.234Z,74.51
2023-04-27T11:09:22.260Z,70.65
2023-04-27T11:10:22.333Z,75.42
2023-04-27T11:11:21.380Z,75.78
2023-04-27T11:12:21.439Z,72.45
2023-04-27T11:13:22.515Z,74.79
2023-04-27T11:14:21.542Z,72.69
2023-04-27T11:15:22.609Z,73.50
2023-04-27T11:16:21.688Z,74.29
2023-04-27T11:17:21.727Z,75.42
2023-04-27T11:18:22.752Z,77.87
2023-04-27T11:19:21.784Z,72.61
2023-04-27T11:20:22.851Z,74.04
2023-04-27T11:21:22.916Z,73.80
2023-04-27T11:22:22.995Z,73.61
2023-04-27T11:23:22.018Z,76.08
2023-04-27T11:24:23.078Z,76.72
2023-04-27T11:25:23.138Z,76.30
2023-04-27T11:26:22.218Z,73.20
2023-04-27T11:27:23.223Z,77.10
2023-04-27T11:28:23.291Z,78.93
2023-04-27T11:29:23.337Z,76.47
2023-04-27T11:30:23.415Z,74.99
2023-04-27T11:31:23.532Z,74.70
2023-04-27T11:32:22.529Z,74.73
2023-04-27T11:33:22.554Z,75.02
2023-04-27T11:34:23.595Z,76.99
2023-04-27T11:35:23.675Z,77.86
2023-04-27T11:36:23.792Z,76.84
2023-04-27T11:37:22.789Z,75.80
2023-04-27T11:38:22.993Z,71.25
2023-04-27T11:39:23.126Z,74.83
2023-04-27T11:40:24.616Z,74.28
2023-04-27T11:41:23.965Z,71.28
2023-04-27T11:42:24.000Z,64.98
2023-04-27T11:43:22.979Z,65.39
2023-04-27T11:44:24.008Z,73.80
2023-04-27T11:45:23.026Z,70.55
2023-04-27T11:46:24.110Z,72.03
2023-04-27T11:47:23.203Z,68.29
2023-04-27T11:48:23.117Z,65.18
2023-04-27T11:49:23.116Z,63.26
2023-04-27T11:50:24.151Z,61.08
2023-04-27T11:51:24.181Z,59.33
2023-04-27T11:52:24.176Z,57.72
2023-04-27T11:53:23.186Z,56.49
2023-04-27T11:54:24.241Z,53.89
2023-04-27T11:55:24.228Z,54.18
2023-04-27T11:56:23.256Z,55.59
2023-04-27T11:57:24.250Z,54.86
2023-04-27T11:58:24.131Z,55.04
2023-04-27T11:59:23.295Z,55.16
2023-04-27T12:00:23.314Z,54.68
2023-04-27T12:01:36.689Z,56.84
2023-04-27T12:02:24.454Z,57.09
2023-04-27T12:03:24.569Z,57.35
2023-04-27T12:04:24.423Z,57.81
2023-04-27T12:05:23.417Z,56.65
2023-04-27T12:06:32.668Z,57.32
2023-04-27T12:07:24.280Z,57.17
2023-04-27T12:08:23.266Z,57.87
2023-04-27T12:09:23.279Z,58.41
2023-04-27T12:10:24.266Z,56.43
2023-04-27T12:11:23.266Z,58.89
2023-04-27T12:12:24.259Z,59.55
2023-04-27T12:13:23.242Z,59.09
2023-04-27T12:14:23.254Z,57.00
2023-04-27T12:15:23.230Z,59.32
2023-04-27T12:16:24.262Z,61.42
2023-04-27T12:17:23.276Z,57.01
2023-04-27T12:18:24.222Z,58.28
2023-04-27T12:19:24.212Z,56.73
2023-04-27T12:20:23.206Z,59.46
2023-04-27T12:21:24.190Z,58.16
2023-04-27T12:22:23.180Z,58.93
2023-04-27T12:23:24.171Z,59.02
2023-04-27T12:24:23.164Z,59.09
2023-04-27T12:25:24.182Z,60.35
2023-04-27T12:26:24.168Z,60.19
2023-04-27T12:27:24.164Z,56.04
2023-04-27T12:28:23.145Z,58.40
2023-04-27T12:29:24.145Z,61.55
2023-04-27T12:30:24.179Z,58.46
2023-04-27T12:31:25.342Z,61.33
2023-04-27T12:32:23.133Z,61.48
2023-04-27T12:33:24.166Z,61.74
2023-04-27T12:34:24.118Z,61.88
2023-04-27T12:35:23.116Z,61.52
2023-04-27T12:36:24.118Z,61.24
2023-04-27T12:37:25.409Z,60.99
2023-04-27T12:38:24.097Z,61.20
2023-04-27T12:39:23.097Z,61.49
2023-04-27T12:40:24.078Z,62.24
2023-04-27T12:41:23.063Z,61.69
2023-04-27T12:42:24.080Z,62.48
2023-04-27T12:43:23.060Z,61.41
2023-04-27T12:44:24.058Z,65.46
2023-04-27T12:45:24.037Z,61.57
2023-04-27T12:46:24.097Z,63.38
2023-04-27T12:48:23.053Z,63.59
2023-04-27T12:49:24.020Z,63.64
2023-04-27T12:50:24.015Z,63.45
2023-04-27T12:51:23.004Z,63.88
2023-04-27T12:52:24.009Z,63.21
2023-04-27T12:53:23.989Z,64.60
2023-04-27T12:54:23.975Z,63.87
2023-04-27T12:55:32.972Z,63.74
2023-04-27T12:56:23.993Z,64.07
2023-04-27T12:57:23.975Z,64.55
2023-04-27T12:58:22.964Z,65.20
2023-04-27T12:59:22.959Z,66.10
2023-04-27T13:00:23.944Z,65.44
2023-04-27T13:01:23.983Z,67.59
2023-04-27T13:02:23.070Z,65.60
2023-04-27T13:03:23.127Z,64.50
2023-04-27T13:04:23.621Z,66.19
2023-04-27T13:05:22.918Z,63.37
2023-04-27T13:06:22.927Z,65.15
2023-04-27T13:07:23.913Z,64.74
2023-04-27T13:08:22.890Z,63.92
2023-04-27T13:09:23.902Z,67.60
2023-04-27T13:10:23.894Z,64.81
2023-04-27T13:11:22.910Z,64.93
2023-04-27T13:12:23.881Z,66.17
2023-04-27T13:13:23.873Z,67.02
2023-04-27T13:14:22.851Z,64.48
2023-04-27T13:15:22.865Z,63.63
2023-04-27T13:16:23.890Z,66.40
2023-04-27T13:17:23.849Z,63.71
2023-04-27T13:18:23.866Z,65.07
2023-04-27T13:19:23.840Z,64.41
2023-04-27T13:20:23.818Z,65.22
2023-04-27T13:21:23.824Z,66.57
2023-04-27T13:22:22.807Z,66.44
2023-04-27T13:23:22.801Z,66.42
2023-04-27T13:24:22.798Z,66.67
2023-04-27T13:25:23.808Z,64.59
2023-04-27T13:26:23.787Z,63.10
2023-04-27T13:27:23.777Z,65.96
2023-04-27T13:28:23.784Z,67.42
2023-04-27T13:29:23.820Z,64.36
2023-04-27T13:30:23.859Z,66.31
2023-04-27T13:31:22.949Z,66.97
2023-04-27T13:32:23.955Z,65.78
2023-04-27T13:33:23.799Z,65.66
2023-04-27T13:34:24.050Z,67.48
2023-04-27T13:35:24.076Z,66.96
2023-04-27T13:36:23.094Z,65.83
2023-04-27T13:37:23.152Z,65.87
2023-04-27T13:38:24.230Z,67.50
2023-04-27T13:39:24.237Z,66.44
2023-04-27T13:40:23.267Z,66.17
2023-04-27T13:41:23.331Z,66.79
2023-04-27T13:42:24.368Z,66.21
2023-04-27T13:43:24.434Z,67.77
2023-04-27T13:44:23.444Z,65.74
2023-04-27T13:45:24.478Z,67.98
2023-04-27T13:46:24.555Z,64.83
2023-04-27T13:47:23.600Z,64.20
2023-04-27T13:48:23.600Z,62.94
2023-04-27T13:49:24.628Z,65.65
2023-04-27T13:50:23.686Z,67.00
2023-04-27T13:51:24.720Z,67.17
2023-04-27T13:52:24.746Z,64.05
2023-04-27T13:53:24.792Z,64.81
2023-04-27T13:54:23.829Z,67.11
2023-04-27T13:55:23.865Z,65.69
2023-04-27T13:56:23.903Z,66.49
2023-04-27T13:57:24.947Z,66.39
2023-04-27T13:58:25.754Z,68.79
2023-04-27T13:59:25.026Z,66.10
2023-04-27T14:00:25.075Z,65.80
2023-04-27T14:01:24.176Z,68.42
2023-04-27T14:02:24.221Z,68.42
2023-04-27T14:03:24.342Z,68.06
2023-04-27T14:04:25.407Z,67.08
2023-04-27T14:05:25.270Z,65.75
2023-04-27T14:06:24.358Z,66.44
2023-04-27T14:07:25.362Z,66.41
2023-04-27T14:08:25.411Z,68.25
2023-04-27T14:09:24.453Z,66.38
2023-04-27T14:10:25.506Z,67.23
2023-04-27T14:11:24.564Z,65.58
2023-04-27T14:12:24.587Z,64.27
2023-04-27T14:13:24.642Z,65.92
2023-04-27T14:14:25.672Z,66.51
2023-04-27T14:15:25.726Z,64.79
2023-04-27T14:16:25.800Z,65.84
2023-04-27T14:17:24.806Z,68.95
2023-04-27T14:18:32.189Z,68.96
2023-04-27T14:19:25.849Z,69.24
2023-04-27T14:20:25.835Z,69.77
2023-04-27T14:21:25.832Z,70.07
2023-04-27T14:22:24.852Z,69.99
2023-04-27T14:23:24.826Z,73.11
2023-04-27T14:24:25.815Z,68.02
2023-04-27T14:25:25.818Z,69.16
2023-04-27T14:26:24.790Z,67.81
2023-04-27T14:27:24.806Z,67.26
2023-04-27T14:28:25.792Z,66.73
2023-04-27T14:29:25.784Z,68.61
2023-04-27T14:30:25.771Z,64.50
2023-04-27T14:31:24.841Z,67.01
2023-04-27T14:32:25.794Z,65.79
2023-04-27T14:33:24.756Z,68.46
2023-04-27T14:34:25.754Z,69.27
2023-04-27T14:35:25.735Z,67.63
2023-04-27T14:36:24.745Z,68.59
2023-04-27T14:37:24.734Z,67.89
2023-04-27T14:38:25.753Z,68.38
2023-04-27T14:39:25.707Z,69.83
2023-04-27T14:40:24.709Z,67.07
2023-04-27T14:41:24.725Z,66.59
2023-04-27T14:42:24.687Z,66.41
2023-04-27T14:43:25.696Z,67.24
2023-04-27T14:44:25.698Z,71.10
2023-04-27T14:45:29.039Z,63.45
2023-04-27T14:46:25.806Z,63.93
2023-04-27T14:47:25.922Z,64.81
2023-04-27T14:48:24.654Z,66.93
2023-04-27T14:49:25.658Z,66.94
2023-04-27T14:50:25.630Z,68.85
2023-04-27T14:51:24.640Z,69.00
2023-04-27T14:52:24.623Z,67.97
2023-04-27T14:53:24.624Z,65.78
2023-04-27T14:54:25.633Z,70.26
2023-04-27T14:55:25.617Z,68.34
2023-04-27T14:56:25.602Z,66.66
2023-04-27T14:57:24.602Z,67.42
2023-04-27T14:58:24.609Z,68.81
2023-04-27T14:59:24.582Z,70.06
2023-04-27T15:00:25.584Z,67.88
2023-04-27T15:01:24.602Z,70.27
2023-04-27T15:02:24.700Z,70.75
2023-04-27T15:03:24.815Z,68.48
2023-04-27T15:04:24.657Z,68.82
2023-04-27T15:05:25.536Z,69.69
2023-04-27T15:06:24.528Z,68.62
2023-04-27T15:07:25.533Z,68.09
2023-04-27T15:08:25.539Z,67.95
2023-04-27T15:09:24.502Z,66.61
2023-04-27T15:10:25.541Z,69.60
2023-04-27T15:11:24.509Z,67.33
2023-04-27T15:12:25.500Z,68.99
2023-04-27T15:13:25.550Z,68.76
2023-04-27T15:14:24.582Z,67.77
2023-04-27T15:15:25.620Z,64.53
2023-04-27T15:16:24.748Z,68.26
2023-04-27T15:17:25.705Z,66.88
2023-04-27T15:18:24.721Z,66.91
2023-04-27T15:19:25.791Z,67.90
2023-04-27T15:20:25.797Z,68.36
2023-04-27T15:21:25.828Z,69.88
2023-04-27T15:22:24.880Z,65.14
2023-04-27T15:23:24.896Z,70.34
2023-04-27T15:24:25.928Z,67.61
2023-04-27T15:25:25.947Z,69.35
2023-04-27T15:26:26.074Z,66.86
2023-04-27T15:27:25.008Z,66.26
2023-04-27T15:28:26.022Z,70.87
2023-04-27T15:29:26.053Z,69.95
